createdAt,value
2018-12-27T00:00:51.791Z,34.13
2018-12-27T00:03:19.991Z,28.17
2018-12-27T00:05:48.100Z,26.30
2018-12-27T00:08:16.319Z,32.13
2018-12-27T00:10:44.419Z,27.40
2018-12-27T00:13:11.437Z,30.97
2018-12-27T00:15:38.967Z,29.30
2018-12-27T00:18:07.339Z,25.37
2018-12-27T00:20:35.403Z,24.60
2018-12-27T00:23:03.540Z,46.53
2018-12-27T00:25:30.565Z,43.10
2018-12-27T00:27:59.772Z,30.70
2018-12-27T00:30:27.615Z,26.77
2018-12-27T00:33:02.956Z,26.87
2018-12-27T00:35:25.231Z,30.73
2018-12-27T00:37:52.406Z,28.47
2018-12-27T00:40:20.097Z,30.60
2018-12-27T00:42:48.243Z,28.07
2018-12-27T00:45:15.311Z,27.20
2018-12-27T00:47:42.551Z,29.13
2018-12-27T00:50:09.524Z,23.87
2018-12-27T00:52:37.736Z,26.77
2018-12-27T00:55:04.651Z,31.57
2018-12-27T00:57:31.619Z,22.77
2018-12-27T00:59:58.934Z,34.00
2018-12-27T01:02:26.184Z,32.50
2018-12-27T01:04:53.279Z,26.60
2018-12-27T01:07:20.239Z,23.83
2018-12-27T01:09:47.633Z,29.70
2018-12-27T01:12:15.839Z,26.27
2018-12-27T01:14:43.146Z,25.90
2018-12-27T01:17:10.619Z,24.90
2018-12-27T01:19:37.976Z,30.10
2018-12-27T01:22:06.499Z,23.03
2018-12-27T01:24:34.051Z,26.70
2018-12-27T01:27:00.988Z,31.60
2018-12-27T01:29:28.365Z,27.43
2018-12-27T01:31:55.779Z,24.40
2018-12-27T01:34:23.036Z,29.53
2018-12-27T01:36:50.901Z,24.70
2018-12-27T01:39:18.356Z,28.30
2018-12-27T01:41:45.292Z,36.40
2018-12-27T01:44:12.432Z,27.50
2018-12-27T01:46:39.604Z,28.90
2018-12-27T01:49:06.515Z,25.63
2018-12-27T01:51:33.447Z,25.30
2018-12-27T01:54:01.292Z,25.10
2018-12-27T01:56:28.854Z,29.53
2018-12-27T01:58:57.119Z,26.43
2018-12-27T02:01:24.503Z,29.97
2018-12-27T02:03:51.960Z,32.23
2018-12-27T02:06:18.880Z,37.80
2018-12-27T02:08:45.799Z,31.13
2018-12-27T02:11:13.028Z,26.23
2018-12-27T02:13:40.053Z,27.43
2018-12-27T02:16:07.516Z,29.23
2018-12-27T02:18:34.435Z,28.60
2018-12-27T02:21:01.381Z,28.97
2018-12-27T02:23:28.284Z,28.20
2018-12-27T02:25:55.183Z,26.90
2018-12-27T02:28:22.116Z,31.03
2018-12-27T02:30:49.051Z,26.53
2018-12-27T02:33:16.196Z,27.97
2018-12-27T02:35:43.464Z,30.10
2018-12-27T02:38:10.766Z,28.70
2018-12-27T02:40:38.015Z,29.87
2018-12-27T02:43:04.930Z,25.13
2018-12-27T02:45:32.199Z,25.60
2018-12-27T02:47:59.143Z,24.23
2018-12-27T02:50:26.552Z,27.33
2018-12-27T02:52:53.444Z,26.50
2018-12-27T02:55:20.711Z,25.33
2018-12-27T02:57:47.675Z,27.93
2018-12-27T03:00:14.952Z,24.90
2018-12-27T03:02:42.541Z,33.80
2018-12-27T03:05:09.445Z,28.60
2018-12-27T03:07:36.366Z,25.43
2018-12-27T03:10:03.879Z,23.87
2018-12-27T03:12:30.827Z,26.50
2018-12-27T03:14:58.059Z,30.50
2018-12-27T03:17:25.008Z,32.40
2018-12-27T03:19:52.260Z,26.50
2018-12-27T03:22:19.442Z,26.63
2018-12-27T03:24:46.378Z,28.50
2018-12-27T03:27:13.317Z,28.30
2018-12-27T03:29:40.239Z,31.97
2018-12-27T03:32:08.340Z,25.10
2018-12-27T03:34:36.492Z,26.87
2018-12-27T03:37:03.784Z,24.93
2018-12-27T03:39:30.704Z,27.20
2018-12-27T03:41:57.657Z,24.97
2018-12-27T03:44:24.928Z,29.40
2018-12-27T03:46:51.968Z,25.10
2018-12-27T03:49:19.640Z,32.67
2018-12-27T03:51:46.936Z,26.40
2018-12-27T03:54:14.444Z,27.27
2018-12-27T03:56:42.002Z,24.40
2018-12-27T03:59:09.768Z,22.73
2018-12-27T04:01:36.984Z,24.60
2018-12-27T04:04:03.951Z,21.50
2018-12-27T04:06:30.882Z,25.00
2018-12-27T04:08:58.107Z,25.33
2018-12-27T04:11:25.341Z,23.57
2018-12-27T04:13:52.261Z,20.67
2018-12-27T04:16:19.412Z,21.40
2018-12-27T04:18:46.348Z,20.53
2018-12-27T04:21:13.838Z,21.03
2018-12-27T04:23:41.235Z,24.77
2018-12-27T04:26:08.605Z,19.80
2018-12-27T04:28:37.055Z,23.50
2018-12-27T04:31:04.593Z,26.57
2018-12-27T04:33:32.427Z,23.33
2018-12-27T04:35:59.845Z,21.13
2018-12-27T04:38:27.092Z,26.43
2018-12-27T04:40:54.211Z,27.73
2018-12-27T04:43:21.555Z,27.27
2018-12-27T04:45:48.589Z,27.13
2018-12-27T04:48:16.392Z,27.13
2018-12-27T04:50:43.760Z,24.47
2018-12-27T04:53:11.007Z,27.47
2018-12-27T04:55:38.004Z,31.20
2018-12-27T04:58:05.616Z,26.40
2018-12-27T05:00:32.911Z,24.00
2018-12-27T05:03:00.127Z,24.93
2018-12-27T05:05:27.737Z,26.60
2018-12-27T05:07:54.715Z,23.57
2018-12-27T05:10:22.087Z,24.87
2018-12-27T05:12:49.428Z,27.13
2018-12-27T05:15:16.437Z,26.87
2018-12-27T05:17:44.417Z,26.47
2018-12-27T05:20:11.282Z,23.50
2018-12-27T05:22:38.332Z,26.80
2018-12-27T05:25:05.705Z,25.90
2018-12-27T05:27:32.736Z,23.50
2018-12-27T05:29:59.736Z,31.43
2018-12-27T05:32:27.047Z,28.47
2018-12-27T05:34:54.057Z,30.27
2018-12-27T05:37:21.243Z,33.30
2018-12-27T05:39:48.292Z,32.43
2018-12-27T05:42:15.215Z,33.33
2018-12-27T05:44:42.483Z,29.03
2018-12-27T05:47:09.532Z,28.30
2018-12-27T05:49:36.900Z,24.80
2018-12-27T05:52:04.081Z,27.90
2018-12-27T05:54:31.296Z,22.73
2018-12-27T05:56:58.501Z,24.20
2018-12-27T05:59:26.155Z,27.10
2018-12-27T06:01:53.975Z,25.23
2018-12-27T06:04:20.895Z,32.13
2018-12-27T06:06:47.893Z,27.47
2018-12-27T06:09:14.984Z,26.40
2018-12-27T06:11:42.475Z,23.80
2018-12-27T06:14:10.494Z,31.47
2018-12-27T06:16:37.519Z,28.30
2018-12-27T06:19:04.574Z,20.73
2018-12-27T06:21:31.791Z,27.30
2018-12-27T06:23:59.152Z,23.43
2018-12-27T06:26:26.307Z,25.63
2018-12-27T06:28:53.431Z,25.77
2018-12-27T06:31:20.456Z,27.47
2018-12-27T06:33:47.456Z,22.93
2018-12-27T06:36:14.791Z,22.90
2018-12-27T06:38:41.992Z,21.43
2018-12-27T06:41:09.499Z,31.30
2018-12-27T06:43:36.975Z,21.47
2018-12-27T06:46:04.215Z,26.13
2018-12-27T06:48:31.252Z,22.97
2018-12-27T06:50:58.234Z,22.30
2018-12-27T06:53:25.301Z,22.83
2018-12-27T06:55:52.658Z,20.17
2018-12-27T06:58:19.575Z,20.90
2018-12-27T07:00:46.828Z,23.80
2018-12-27T07:03:14.125Z,22.07
2018-12-27T07:05:41.307Z,25.17
2018-12-27T07:08:08.739Z,23.10
2018-12-27T07:10:36.571Z,22.57
2018-12-27T07:13:03.608Z,22.93
2018-12-27T07:15:30.878Z,23.87
2018-12-27T07:17:57.888Z,21.50
2018-12-27T07:20:25.024Z,26.77
2018-12-27T07:22:52.057Z,23.77
2018-12-27T07:25:19.528Z,22.87
2018-12-27T07:27:46.555Z,22.80
2018-12-27T07:30:13.831Z,27.40
2018-12-27T07:32:40.892Z,26.33
2018-12-27T07:35:08.243Z,30.53
2018-12-27T07:37:35.583Z,32.23
2018-12-27T07:40:03.420Z,27.43
2018-12-27T07:42:30.468Z,27.50
2018-12-27T07:44:58.755Z,27.67
2018-12-27T07:47:26.239Z,26.40
2018-12-27T07:49:53.283Z,35.20
2018-12-27T07:52:20.356Z,30.30
2018-12-27T07:54:47.391Z,26.63
2018-12-27T07:57:14.996Z,28.63
2018-12-27T07:59:42.202Z,29.70
2018-12-27T08:02:09.600Z,34.30
2018-12-27T08:04:36.624Z,26.60
2018-12-27T08:07:03.800Z,33.63
2018-12-27T08:09:30.825Z,28.67
2018-12-27T08:11:58.194Z,27.87
2018-12-27T08:14:25.143Z,25.87
2018-12-27T08:16:55.541Z,26.97
2018-12-27T08:19:22.923Z,30.73
2018-12-27T08:21:50.232Z,29.83
2018-12-27T08:24:17.433Z,26.00
2018-12-27T08:26:44.600Z,28.23
2018-12-27T08:29:11.763Z,28.70
2018-12-27T08:31:39.280Z,30.10
2018-12-27T08:34:06.308Z,22.60
2018-12-27T08:36:33.317Z,28.30
2018-12-27T08:39:00.507Z,28.23
2018-12-27T08:41:27.843Z,24.70
2018-12-27T08:43:55.002Z,28.33
2018-12-27T08:46:22.169Z,27.57
2018-12-27T08:48:50.829Z,28.67
2018-12-27T08:51:18.043Z,32.40
2018-12-27T08:53:44.953Z,26.07
2018-12-27T08:56:11.988Z,29.20
2018-12-27T08:58:39.112Z,31.33
2018-12-27T09:01:06.292Z,27.93
2018-12-27T09:03:33.555Z,25.50
2018-12-27T09:06:00.728Z,24.23
2018-12-27T09:08:28.115Z,30.30
2018-12-27T09:10:55.575Z,25.10
2018-12-27T09:13:22.627Z,23.50
2018-12-27T09:15:49.971Z,21.03
2018-12-27T09:18:17.323Z,30.23
2018-12-27T09:20:44.896Z,28.03
2018-12-27T09:23:12.073Z,28.90
2018-12-27T09:25:39.400Z,27.83
2018-12-27T09:28:06.455Z,28.70
2018-12-27T09:30:33.489Z,26.43
2018-12-27T09:33:00.994Z,31.33
2018-12-27T09:35:28.034Z,29.97
2018-12-27T09:37:54.960Z,31.57
2018-12-27T09:40:23.092Z,33.30
2018-12-27T09:42:50.192Z,30.30
2018-12-27T09:45:17.723Z,31.50
2018-12-27T09:47:45.182Z,40.63
2018-12-27T09:50:12.259Z,28.40
2018-12-27T09:52:39.162Z,32.50
2018-12-27T09:55:06.527Z,39.03
2018-12-27T09:57:33.416Z,30.20
2018-12-27T10:00:00.424Z,31.30
2018-12-27T10:02:27.450Z,38.83
2018-12-27T10:04:54.670Z,36.73
2018-12-27T10:07:21.827Z,30.13
2018-12-27T10:09:48.755Z,33.90
2018-12-27T10:12:15.899Z,33.30
2018-12-27T10:14:43.096Z,35.23
2018-12-27T10:17:10.121Z,34.27
2018-12-27T10:19:37.296Z,39.10
2018-12-27T10:22:04.735Z,35.97
2018-12-27T10:24:32.184Z,39.57
2018-12-27T10:26:59.492Z,35.53
2018-12-27T10:29:28.004Z,32.27
2018-12-27T10:31:55.274Z,29.47
2018-12-27T10:34:22.207Z,28.57
2018-12-27T10:36:50.127Z,27.27
2018-12-27T10:39:17.637Z,25.03
2018-12-27T10:41:44.588Z,26.67
2018-12-27T10:44:11.775Z,28.23
2018-12-27T10:46:39.128Z,33.97
2018-12-27T10:49:06.270Z,29.27
2018-12-27T10:51:33.308Z,27.13
2018-12-27T10:54:00.549Z,24.60
2018-12-27T10:56:27.868Z,22.70
2018-12-27T10:58:55.183Z,26.27
2018-12-27T11:01:22.057Z,26.57
2018-12-27T11:03:49.999Z,21.90
2018-12-27T11:06:17.004Z,27.13
2018-12-27T11:08:44.181Z,33.57
2018-12-27T11:11:11.184Z,23.60
2018-12-27T11:13:38.217Z,29.93
2018-12-27T11:16:05.388Z,32.10
2018-12-27T11:18:32.696Z,32.47
2018-12-27T11:20:59.843Z,34.60
2018-12-27T11:23:27.093Z,34.93
2018-12-27T11:25:54.382Z,31.60
2018-12-27T11:28:21.605Z,37.63
2018-12-27T11:30:48.647Z,27.27
2018-12-27T11:33:15.709Z,27.43
2018-12-27T11:35:42.600Z,30.10
2018-12-27T11:38:09.510Z,33.07
2018-12-27T11:40:36.588Z,28.50
2018-12-27T11:43:03.596Z,29.90
2018-12-27T11:45:30.598Z,25.70
2018-12-27T11:47:57.892Z,27.00
2018-12-27T11:50:24.882Z,24.17
2018-12-27T11:52:51.983Z,26.80
2018-12-27T11:55:18.875Z,34.17
2018-12-27T11:57:46.167Z,33.33
2018-12-27T12:00:13.375Z,29.67
2018-12-27T12:02:40.847Z,29.90
2018-12-27T12:05:08.390Z,28.93
2018-12-27T12:07:35.691Z,34.07
2018-12-27T12:10:03.553Z,32.10
2018-12-27T12:12:30.551Z,28.20
2018-12-27T12:14:57.889Z,33.90
2018-12-27T12:17:24.807Z,38.30
2018-12-27T12:19:51.787Z,39.33
2018-12-27T12:22:18.751Z,36.60
2018-12-27T12:24:45.927Z,38.03
2018-12-27T12:27:13.116Z,34.47
2018-12-27T12:29:40.127Z,37.97
2018-12-27T12:32:07.288Z,33.47
2018-12-27T12:34:34.715Z,29.53
2018-12-27T12:37:02.611Z,32.00
2018-12-27T12:39:29.859Z,30.40
2018-12-27T12:41:57.412Z,36.30
2018-12-27T12:44:24.719Z,35.73
2018-12-27T12:46:53.144Z,35.97
2018-12-27T12:49:20.060Z,38.73
2018-12-27T12:51:47.215Z,34.40
2018-12-27T12:54:14.455Z,44.07
2018-12-27T12:56:41.508Z,37.37
2018-12-27T12:59:08.728Z,39.93
2018-12-27T13:01:35.762Z,34.37
2018-12-27T13:04:03.220Z,44.40
2018-12-27T13:06:30.221Z,39.70
2018-12-27T13:08:57.605Z,40.87
2018-12-27T13:11:25.064Z,45.87
2018-12-27T13:13:52.627Z,36.77
2018-12-27T13:16:19.623Z,37.73
2018-12-27T13:18:48.060Z,43.50
2018-12-27T13:21:16.700Z,40.17
2018-12-27T13:23:43.564Z,42.50
2018-12-27T13:26:10.463Z,46.67
2018-12-27T13:28:37.604Z,46.70
2018-12-27T13:31:06.504Z,47.00
2018-12-27T13:33:34.435Z,47.07
2018-12-27T13:36:02.897Z,43.53
2018-12-27T13:38:30.652Z,43.37
2018-12-27T13:40:58.015Z,44.67
2018-12-27T13:43:25.759Z,38.33
2018-12-27T13:45:53.159Z,43.77
2018-12-27T13:48:20.522Z,46.67
2018-12-27T13:50:47.776Z,51.87
2018-12-27T13:53:14.920Z,46.53
2018-12-27T13:55:42.426Z,48.30
2018-12-27T13:58:09.683Z,48.50
2018-12-27T14:00:36.785Z,49.00
2018-12-27T14:03:04.191Z,46.30
2018-12-27T14:05:31.604Z,46.20
2018-12-27T14:07:58.495Z,46.60
2018-12-27T14:10:25.969Z,38.10
2018-12-27T14:12:52.887Z,41.17
2018-12-27T14:15:20.584Z,43.13
2018-12-27T14:17:47.699Z,44.00
2018-12-27T14:20:15.180Z,41.70
2018-12-27T14:22:42.856Z,40.47
2018-12-27T14:25:11.382Z,40.77
2018-12-27T14:27:38.703Z,43.43
2018-12-27T14:30:06.908Z,44.93
2018-12-27T14:32:33.940Z,44.57
2018-12-27T14:35:01.448Z,45.57
2018-12-27T14:37:29.431Z,44.07
2018-12-27T14:39:56.957Z,40.70
2018-12-27T14:42:25.088Z,39.03
2018-12-27T14:44:52.068Z,42.87
2018-12-27T14:47:18.923Z,43.10
2018-12-27T14:49:46.160Z,49.00
2018-12-27T14:52:13.179Z,42.70
2018-12-27T14:54:40.452Z,41.30
2018-12-27T14:57:08.077Z,42.10
2018-12-27T14:59:35.132Z,41.27
2018-12-27T15:02:02.760Z,41.17
2018-12-27T15:04:31.118Z,40.80
2018-12-27T15:06:58.320Z,44.13
2018-12-27T15:09:25.536Z,47.53
2018-12-27T15:11:52.607Z,42.90
2018-12-27T15:14:20.661Z,44.43
2018-12-27T15:16:47.576Z,35.77
2018-12-27T15:19:15.180Z,40.60
2018-12-27T15:21:42.964Z,44.83
2018-12-27T15:24:11.483Z,43.17
2018-12-27T15:26:39.043Z,54.67
2018-12-27T15:29:06.491Z,48.53
2018-12-27T15:31:34.059Z,50.83
2018-12-27T15:34:01.680Z,40.87
2018-12-27T15:36:29.384Z,40.70
2018-12-27T15:38:56.491Z,44.27
2018-12-27T15:41:23.803Z,47.33
2018-12-27T15:43:51.981Z,45.10
2018-12-27T15:46:19.721Z,45.63
2018-12-27T15:48:47.375Z,44.83
2018-12-27T15:51:14.835Z,47.80
2018-12-27T15:53:41.836Z,38.40
2018-12-27T15:56:09.535Z,41.57
2018-12-27T15:58:36.703Z,46.83
2018-12-27T16:01:05.207Z,41.90
2018-12-27T16:03:32.847Z,43.53
2018-12-27T16:06:00.108Z,44.50
2018-12-27T16:08:27.131Z,46.40
2018-12-27T16:10:54.908Z,46.83
2018-12-27T16:13:22.754Z,43.47
2018-12-27T16:15:50.455Z,38.17
2018-12-27T16:18:18.138Z,46.57
2018-12-27T16:20:45.572Z,39.23
2018-12-27T16:23:16.390Z,51.30
2018-12-27T16:25:43.744Z,44.70
2018-12-27T16:28:11.280Z,46.77
2018-12-27T16:30:38.625Z,38.90
2018-12-27T16:33:06.409Z,43.03
2018-12-27T16:35:33.857Z,45.20
2018-12-27T16:38:02.784Z,47.00
2018-12-27T16:40:31.561Z,45.70
2018-12-27T16:42:59.372Z,47.97
2018-12-27T16:45:27.494Z,52.23
2018-12-27T16:47:54.650Z,44.07
2018-12-27T16:50:21.794Z,39.87
2018-12-27T16:52:48.812Z,43.07
2018-12-27T16:55:16.876Z,42.47
2018-12-27T16:57:43.887Z,56.03
2018-12-27T17:00:11.380Z,65.13
2018-12-27T17:02:38.935Z,55.80
2018-12-27T17:05:07.348Z,48.27
2018-12-27T17:07:35.103Z,49.93
2018-12-27T17:10:02.955Z,46.10
2018-12-27T17:12:30.115Z,49.33
2018-12-27T17:14:57.647Z,45.50
2018-12-27T17:17:25.327Z,48.17
2018-12-27T17:19:52.708Z,43.60
2018-12-27T17:22:20.256Z,52.13
2018-12-27T17:24:48.952Z,52.00
2018-12-27T17:27:16.256Z,46.97
2018-12-27T17:29:44.407Z,53.30
2018-12-27T17:32:12.133Z,46.60
2018-12-27T17:34:39.188Z,49.27
2018-12-27T17:37:06.521Z,54.33
2018-12-27T17:39:34.059Z,51.83
2018-12-27T17:42:01.328Z,57.20
2018-12-27T17:44:28.589Z,54.77
2018-12-27T17:46:56.064Z,60.40
2018-12-27T17:49:23.114Z,57.17
2018-12-27T17:51:50.499Z,48.67
2018-12-27T17:54:18.216Z,37.63
2018-12-27T17:56:45.463Z,44.77
2018-12-27T17:59:12.752Z,41.60
2018-12-27T18:01:39.632Z,52.70
2018-12-27T18:04:07.341Z,43.93
2018-12-27T18:06:34.519Z,44.17
2018-12-27T18:09:02.880Z,47.30
2018-12-27T18:11:29.952Z,41.20
2018-12-27T18:13:57.662Z,43.20
2018-12-27T18:16:25.472Z,45.13
2018-12-27T18:18:52.623Z,42.10
2018-12-27T18:21:19.801Z,43.27
2018-12-27T18:23:46.736Z,38.70
2018-12-27T18:26:14.433Z,37.30
2018-12-27T18:28:41.655Z,39.30
2018-12-27T18:31:09.295Z,39.97
2018-12-27T18:33:36.471Z,46.27
2018-12-27T18:36:04.355Z,43.27
2018-12-27T18:38:32.307Z,46.63
2018-12-27T18:40:59.917Z,44.43
2018-12-27T18:43:28.053Z,39.83
2018-12-27T18:45:56.352Z,42.37
2018-12-27T18:48:24.755Z,33.67
2018-12-27T18:50:53.355Z,41.07
2018-12-27T18:53:20.816Z,45.23
2018-12-27T18:55:47.960Z,38.43
2018-12-27T18:58:17.042Z,41.40
2018-12-27T19:00:45.086Z,39.53
2018-12-27T19:03:12.180Z,36.13
2018-12-27T19:05:39.144Z,39.50
2018-12-27T19:08:06.550Z,34.57
2018-12-27T19:10:35.299Z,34.90
2018-12-27T19:13:10.787Z,42.33
2018-12-27T19:15:53.841Z,39.53
2018-12-27T19:18:35.811Z,62.60
2018-12-27T19:21:16.267Z,38.23
2018-12-27T19:23:43.226Z,40.13
2018-12-27T19:26:11.260Z,36.10
2018-12-27T19:28:38.701Z,34.93
2018-12-27T19:31:06.818Z,38.30
2018-12-27T19:33:34.494Z,30.70
2018-12-27T19:36:01.757Z,35.70
2018-12-27T19:38:31.492Z,37.10
2018-12-27T19:40:58.687Z,31.97
2018-12-27T19:43:26.116Z,38.90
2018-12-27T19:45:53.768Z,39.60
2018-12-27T19:48:21.247Z,38.37
2018-12-27T19:50:48.407Z,40.57
2018-12-27T19:53:15.518Z,39.40
2018-12-27T19:55:42.659Z,39.60
2018-12-27T19:58:10.305Z,41.30
2018-12-27T20:00:38.123Z,34.70
2018-12-27T20:03:05.471Z,43.40
2018-12-27T20:05:33.295Z,43.10
2018-12-27T20:08:00.716Z,43.97
2018-12-27T20:10:28.620Z,41.53
2018-12-27T20:12:59.045Z,41.30
2018-12-27T20:15:28.006Z,42.43
2018-12-27T20:17:56.439Z,46.40
2018-12-27T20:20:24.178Z,36.00
2018-12-27T20:22:51.684Z,45.50
2018-12-27T20:25:18.818Z,44.67
2018-12-27T20:27:46.325Z,38.17
2018-12-27T20:30:13.848Z,44.23
2018-12-27T20:32:42.492Z,42.67
2018-12-27T20:35:09.999Z,59.50
2018-12-27T20:37:37.960Z,51.30
2018-12-27T20:40:05.440Z,41.00
2018-12-27T20:42:32.369Z,44.53
2018-12-27T20:45:00.401Z,42.43
2018-12-27T20:47:28.944Z,46.23
2018-12-27T20:49:56.451Z,46.37
2018-12-27T20:52:25.260Z,41.17
2018-12-27T20:54:52.824Z,45.00
2018-12-27T20:57:20.276Z,43.57
2018-12-27T20:59:47.547Z,39.43
2018-12-27T21:02:14.657Z,41.37
2018-12-27T21:04:43.172Z,38.87
2018-12-27T21:07:10.603Z,43.07
2018-12-27T21:09:37.656Z,39.93
2018-12-27T21:12:04.849Z,39.47
2018-12-27T21:14:31.768Z,43.27
2018-12-27T21:16:59.129Z,43.17
2018-12-27T21:19:26.460Z,37.17
2018-12-27T21:21:53.711Z,43.53
2018-12-27T21:24:21.084Z,32.43
2018-12-27T21:26:48.223Z,39.77
2018-12-27T21:29:15.381Z,31.40
2018-12-27T21:31:43.591Z,38.47
2018-12-27T21:34:11.676Z,44.57
2018-12-27T21:36:38.852Z,37.80
2018-12-27T21:39:07.000Z,41.33
2018-12-27T21:41:34.256Z,40.63
2018-12-27T21:44:01.979Z,38.23
2018-12-27T21:46:29.656Z,31.20
2018-12-27T21:48:57.699Z,40.47
2018-12-27T21:51:24.800Z,40.13
2018-12-27T21:53:52.415Z,34.70
2018-12-27T21:56:19.540Z,37.13
2018-12-27T21:58:46.655Z,36.97
2018-12-27T22:01:14.250Z,31.53
2018-12-27T22:03:41.588Z,32.33
2018-12-27T22:06:09.196Z,33.57
2018-12-27T22:08:36.640Z,37.80
2018-12-27T22:11:04.874Z,38.43
2018-12-27T22:13:32.805Z,36.40
2018-12-27T22:16:00.206Z,35.50
2018-12-27T22:18:28.640Z,41.67
2018-12-27T22:20:56.031Z,39.13
2018-12-27T22:23:23.434Z,34.63
2018-12-27T22:25:50.775Z,39.50
2018-12-27T22:28:18.787Z,43.23
2018-12-27T22:30:46.230Z,39.00
2018-12-27T22:33:13.167Z,42.17
2018-12-27T22:35:40.065Z,43.80
2018-12-27T22:38:08.368Z,50.20
2018-12-27T22:40:35.232Z,49.97
2018-12-27T22:43:02.441Z,34.00
2018-12-27T22:45:29.749Z,45.57
2018-12-27T22:47:57.081Z,49.57
2018-12-27T22:50:24.217Z,38.80
2018-12-27T22:52:51.839Z,39.00
2018-12-27T22:55:20.014Z,38.93
2018-12-27T22:57:47.339Z,32.90
2018-12-27T23:00:20.697Z,42.10
2018-12-27T23:02:48.425Z,36.73
2018-12-27T23:05:15.552Z,44.47
2018-12-27T23:07:44.309Z,44.10
2018-12-27T23:10:12.383Z,41.00
2018-12-27T23:12:39.436Z,40.47
2018-12-27T23:15:08.255Z,44.83
2018-12-27T23:17:35.549Z,46.30
2018-12-27T23:20:03.839Z,35.37
2018-12-27T23:22:32.752Z,46.83
2018-12-27T23:25:00.226Z,55.10
2018-12-27T23:27:27.608Z,37.17
2018-12-27T23:29:55.943Z,40.47
2018-12-27T23:32:23.284Z,38.30
2018-12-27T23:34:51.301Z,48.13
2018-12-27T23:37:19.540Z,43.10
2018-12-27T23:39:48.206Z,33.73
2018-12-27T23:42:15.251Z,54.50
2018-12-27T23:44:43.580Z,41.20
2018-12-27T23:47:11.799Z,63.73
2018-12-27T23:49:39.163Z,40.70
2018-12-27T23:52:06.887Z,49.27
2018-12-27T23:54:34.418Z,46.93
2018-12-27T23:57:02.424Z,47.90
2018-12-27T23:59:31.648Z,47.90
